Météo Nord-Pas-de-Calais   La météo au plus près de chez vous

Station météorologique

Observations météo à Dunkerque (59183)

59183001 11 m Dernier relevé à 11:18
20.6°C
Humidité 68 % Vent 13 km/h 1024.7 hPa

Journée consultée

Dimanche 6 Septembre 2026

Synthèse de la journée

Périodes de référence en UTC

Température maximale

20.6°C

à 11:18

06h 06h

Température minimale

13.4°C

à 05:48

18h 18h

Rafale maximale

28 km/h

à 11:18

00h 00h

Précipitations

0 mm

Cumul quotidien

06h 06h

Graphiques de la journée

Heure locale Réduire

Données détaillées

Relevés météo

Pas de 6 minutes Afficher les relevés infra-horaires
Relevés météo détaillés à Dunkerque pour le Dimanche 6 Septembre 2026
Heure Température °C Point de rosée °C Humidité % Vent moyen (raf.), km/h Précipitations mm Pression hPa Nébulosité Octas
11:18 20.6 °C 11.5 °C 56 % 21 km/h (28 km/h) 0 mm0 mm 1024.3 hPa
11:12 20.2 °C 11.4 °C 57 % 19 km/h (24 km/h) 0 mm0 mm 1024.4 hPa
11:06 20 °C 11.5 °C 58 % 18 km/h (24 km/h) 0 mm0 mm 1024.4 hPa
11:00 20 °C 12 °C 60 % 16 km/h (24 km/h) 0 mm0 mm 1024.5 hPa 5 Octas
10:54 19.4 °C 12.4 °C 64 % 15 km/h (20 km/h) 0 mm0 mm 1024.5 hPa
10:48 18.8 °C 11.4 °C 62 % 15 km/h (20 km/h) 0 mm0 mm 1024.5 hPa
10:42 19.4 °C 12.2 °C 63 % 13 km/h (19 km/h) 0 mm0 mm 1024.5 hPa
10:36 18.9 °C 11.7 °C 63 % 13 km/h (18 km/h) 0 mm0 mm 1024.5 hPa
10:30 18.8 °C 12.1 °C 65 % 14 km/h (21 km/h) 0 mm0 mm 1024.6 hPa
10:24 18.6 °C 11.9 °C 65 % 14 km/h (21 km/h) 0 mm0 mm 1024.7 hPa
10:18 18.2 °C 12.2 °C 68 % 13 km/h (17 km/h) 0 mm0 mm 1024.7 hPa
10:12 18.1 °C 11.9 °C 67 % 14 km/h (20 km/h) 0 mm0 mm 1024.7 hPa
10:06 17.5 °C 11.3 °C 67 % 14 km/h (20 km/h) 0 mm0 mm 1024.7 hPa
10:00 17.5 °C 11.5 °C 68 % 15 km/h (21 km/h) 0 mm0 mm 1024.7 hPa
09:54 17.2 °C 11.5 °C 69 % 15 km/h (21 km/h) 0 mm0 mm 1024.6 hPa
09:48 16.8 °C 11.3 °C 70 % 14 km/h (18 km/h) 0 mm0 mm 1024.7 hPa
09:42 16.6 °C 11.5 °C 72 % 14 km/h (19 km/h) 0 mm0 mm 1024.7 hPa
09:36 16.4 °C 11.5 °C 73 % 14 km/h (18 km/h) 0 mm0 mm 1024.7 hPa
09:30 16.2 °C 11.4 °C 73 % 14 km/h (18 km/h) 0 mm0 mm 1024.7 hPa
09:24 15.8 °C 11.4 °C 75 % 15 km/h (21 km/h) 0 mm0 mm 1024.8 hPa
09:18 15.6 °C 11.2 °C 75 % 15 km/h (18 km/h) 0 mm0 mm 1024.7 hPa
09:12 15.6 °C 11.2 °C 75 % 14 km/h (18 km/h) 0 mm0 mm 1024.8 hPa
09:06 15.2 °C 11.2 °C 77 % 13 km/h (18 km/h) 0 mm0 mm 1024.8 hPa
09:00 15 °C 11.2 °C 78 % 14 km/h (18 km/h) 0 mm0 mm 1024.8 hPa
08:54 14.7 °C 10.9 °C 78 % 14 km/h (19 km/h) 0 mm0 mm 1024.7 hPa
08:48 14.5 °C 10.7 °C 78 % 13 km/h (18 km/h) 0 mm0 mm 1024.8 hPa
08:42 14.5 °C 10.9 °C 79 % 13 km/h (16 km/h) 0 mm0 mm 1024.8 hPa
08:36 14.2 °C 11 °C 81 % 13 km/h (18 km/h) 0 mm0 mm 1024.8 hPa
08:30 14 °C 10.8 °C 81 % 13 km/h (18 km/h) 0 mm0 mm 1024.8 hPa
08:24 13.9 °C 10.7 °C 81 % 13 km/h (17 km/h) 0 mm0 mm 1024.8 hPa
08:18 14 °C 11 °C 82 % 13 km/h (18 km/h) 0 mm0 mm 1024.8 hPa
08:12 13.8 °C 10.6 °C 81 % 14 km/h (18 km/h) 0 mm0 mm 1024.9 hPa
08:06 14 °C 10.8 °C 81 % 14 km/h (18 km/h) 0 mm0 mm 1025 hPa
08:00 13.8 °C 10.8 °C 82 % 13 km/h (18 km/h) 0 mm0 mm 1025.1 hPa
07:54 13.8 °C 10.8 °C 82 % 13 km/h (18 km/h) 0 mm0 mm 1025.1 hPa
07:48 13.7 °C 10.7 °C 82 % 12 km/h (16 km/h) 0 mm0 mm 1025.1 hPa
07:42 13.7 °C 10.9 °C 83 % 13 km/h (17 km/h) 0 mm0 mm 1025.2 hPa
07:36 13.7 °C 10.7 °C 82 % 14 km/h (19 km/h) 0 mm0 mm 1025.2 hPa
07:30 13.7 °C 10.9 °C 83 % 14 km/h (19 km/h) 0 mm0 mm 1025.1 hPa
07:24 13.7 °C 10.9 °C 83 % 13 km/h (17 km/h) 0 mm0 mm 1024.9 hPa
07:18 13.6 °C 10.8 °C 83 % 13 km/h (17 km/h) 0 mm0 mm 1024.9 hPa
07:12 13.6 °C 10.6 °C 82 % 13 km/h (16 km/h) 0 mm0 mm 1025 hPa
07:06 13.7 °C 10.7 °C 82 % 12 km/h (16 km/h) 0 mm0 mm 1025 hPa
07:00 13.8 °C 10.6 °C 81 % 12 km/h (16 km/h) 0 mm0 mm 1025 hPa
06:54 13.8 °C 11 °C 83 % 13 km/h (16 km/h) 0 mm0 mm 1024.9 hPa
06:48 13.7 °C 11 °C 84 % 13 km/h (16 km/h) 0 mm0 mm 1024.8 hPa
06:42 13.6 °C 11.1 °C 85 % 12 km/h (14 km/h) 0 mm0 mm 1024.8 hPa
06:36 13.6 °C 11.1 °C 85 % 12 km/h (14 km/h) 0 mm0 mm 1024.9 hPa
06:30 13.7 °C 11.4 °C 86 % 10 km/h (13 km/h) 0 mm0 mm 1025 hPa
06:24 13.6 °C 11.3 °C 86 % 10 km/h (12 km/h) 0 mm0 mm 1025.2 hPa
06:18 13.5 °C 11.2 °C 86 % 10 km/h (12 km/h) 0 mm0 mm 1025.3 hPa
06:12 13.4 °C 11.1 °C 86 % 9 km/h (12 km/h) 0 mm0 mm 1025.3 hPa
06:06 13.4 °C 11.1 °C 86 % 8 km/h (12 km/h) 0 mm0 mm 1025.5 hPa
06:00 13.4 °C 11.1 °C 86 % 9 km/h (13 km/h) 0 mm0 mm 1025.6 hPa
05:54 13.4 °C 11.1 °C 86 % 9 km/h (13 km/h) 0 mm0 mm 1025.6 hPa
05:48 13.4 °C 10.9 °C 85 % 8 km/h (10 km/h) 0 mm0 mm 1025.6 hPa
05:42 13.5 °C 10.8 °C 84 % 8 km/h (17 km/h) 0 mm0 mm 1025.7 hPa
05:36 13.7 °C 10.9 °C 83 % 10 km/h (17 km/h) 0 mm0 mm 1025.6 hPa
05:30 14 °C 11.2 °C 83 % 10 km/h (14 km/h) 0 mm0 mm 1025.6 hPa
05:24 14.2 °C 11 °C 81 % 10 km/h (14 km/h) 0 mm0 mm 1025.7 hPa
05:18 14.5 °C 11.5 °C 82 % 10 km/h (14 km/h) 0 mm0 mm 1025.7 hPa
05:12 14.5 °C 11.5 °C 82 % 8 km/h (13 km/h) 0 mm0 mm 1025.7 hPa
05:06 14.6 °C 11.7 °C 83 % 6 km/h (9 km/h) 0 mm0 mm 1025.6 hPa
05:00 14.4 °C 11.5 °C 83 % 6 km/h (9 km/h) 0 mm0 mm 1025.7 hPa 5 Octas
04:54 14.3 °C 11.4 °C 83 % 7 km/h (9 km/h) 0 mm0 mm 1025.8 hPa
04:48 14.3 °C 11.4 °C 83 % 7 km/h (10 km/h) 0 mm0 mm 1025.8 hPa
04:42 14.3 °C 11.4 °C 83 % 8 km/h (10 km/h) 0 mm0 mm 1025.9 hPa
04:36 14.4 °C 11.5 °C 83 % 9 km/h (11 km/h) 0 mm0 mm 1026 hPa
04:30 14.4 °C 11.5 °C 83 % 9 km/h (11 km/h) 0 mm0 mm 1026 hPa
04:24 14.3 °C 11.4 °C 83 % 8 km/h (11 km/h) 0 mm0 mm 1026 hPa
04:18 14.3 °C 11.4 °C 83 % 8 km/h (12 km/h) 0 mm0 mm 1026.1 hPa
04:12 14.5 °C 11.5 °C 82 % 8 km/h (11 km/h) 0 mm0 mm 1026.2 hPa
04:06 14.6 °C 11.7 °C 83 % 8 km/h (11 km/h) 0 mm0 mm 1026.2 hPa
04:00 14.5 °C 11.6 °C 83 % 8 km/h (11 km/h) 0 mm0 mm 1026.3 hPa
03:54 14.4 °C 11.5 °C 83 % 7 km/h (10 km/h) 0 mm0 mm 1026.3 hPa
03:48 14.4 °C 11.5 °C 83 % 6 km/h (8 km/h) 0 mm0 mm 1026.4 hPa
03:42 14.4 °C 11.4 °C 82 % 6 km/h (8 km/h) 0 mm0 mm 1026.5 hPa
03:36 14.5 °C 11.5 °C 82 % 5 km/h (8 km/h) 0 mm0 mm 1026.4 hPa
03:30 14.6 °C 11.4 °C 81 % 4 km/h (7 km/h) 0 mm0 mm 1026.4 hPa
03:24 14.8 °C 11.6 °C 81 % 5 km/h (9 km/h) 0 mm0 mm 1026.5 hPa
03:18 15.1 °C 11.9 °C 81 % 7 km/h (9 km/h) 0 mm0 mm 1026.5 hPa
03:12 15.2 °C 12.1 °C 82 % 7 km/h (9 km/h) 0 mm0 mm 1026.5 hPa
03:06 15.1 °C 12 °C 82 % 6 km/h (8 km/h) 0 mm0 mm 1026.4 hPa
03:00 15.2 °C 12 °C 81 % 6 km/h (8 km/h) 0 mm0 mm 1026.4 hPa
02:54 15.4 °C 12.2 °C 81 % 7 km/h (8 km/h) 0 mm0 mm 1026.4 hPa
02:48 15.4 °C 12.2 °C 81 % 8 km/h (10 km/h) 0 mm0 mm 1026.4 hPa
02:42 15.2 °C 12 °C 81 % 8 km/h (11 km/h) 0 mm0 mm 1026.4 hPa
02:36 15.1 °C 12 °C 82 % 9 km/h (11 km/h) 0 mm0 mm 1026.5 hPa
02:30 14.9 °C 11.9 °C 82 % 8 km/h (10 km/h) 0 mm0 mm 1026.5 hPa
02:24 14.8 °C 11.8 °C 82 % 8 km/h (9 km/h) 0 mm0 mm 1026.4 hPa
02:18 14.8 °C 11.8 °C 82 % 8 km/h (9 km/h) 0 mm0 mm 1026.6 hPa
02:12 14.8 °C 11.8 °C 82 % 8 km/h (10 km/h) 0 mm0 mm 1026.6 hPa
02:06 14.7 °C 11.8 °C 83 % 8 km/h (11 km/h) 0 mm0 mm 1026.7 hPa
02:00 14.6 °C 11.6 °C 82 % 8 km/h (11 km/h) 0 mm0 mm 1026.7 hPa
01:54 14.6 °C 11.6 °C 82 % 8 km/h (10 km/h) 0 mm0 mm 1026.6 hPa
01:48 14.6 °C 11.7 °C 83 % 8 km/h (11 km/h) 0 mm0 mm 1026.7 hPa
01:42 14.5 °C 11.5 °C 82 % 9 km/h (11 km/h) 0 mm0 mm 1026.7 hPa
01:36 14.6 °C 11.6 °C 82 % 10 km/h (12 km/h) 0 mm0 mm 1026.9 hPa
01:30 14.7 °C 11.7 °C 82 % 11 km/h (13 km/h) 0 mm0 mm 1027 hPa
01:24 14.9 °C 11.9 °C 82 % 11 km/h (13 km/h) 0 mm0 mm 1026.9 hPa
01:18 14.9 °C 11.5 °C 80 % 10 km/h (13 km/h) 0 mm0 mm 1026.8 hPa
01:12 15 °C 11.6 °C 80 % 10 km/h (12 km/h) 0 mm0 mm 1026.5 hPa
01:06 15 °C 11.8 °C 81 % 10 km/h (12 km/h) 0 mm0 mm 1026.4 hPa
01:00 15 °C 11.6 °C 80 % 9 km/h (13 km/h) 0 mm0 mm 1026.5 hPa
00:54 15 °C 11.4 °C 79 % 7 km/h (12 km/h) 0 mm0 mm 1026.3 hPa
00:48 15.1 °C 11.5 °C 79 % 6 km/h (9 km/h) 0 mm0 mm 1026.2 hPa
00:42 15.2 °C 11.6 °C 79 % 8 km/h (12 km/h) 0 mm0 mm 1026.2 hPa
00:36 15.2 °C 11.4 °C 78 % 9 km/h (12 km/h) 0 mm0 mm 1026.2 hPa
00:30 15.4 °C 11.8 °C 79 % 8 km/h (11 km/h) 0 mm0 mm 1026.3 hPa
00:24 15.4 °C 11.6 °C 78 % 8 km/h (12 km/h) 0 mm0 mm 1026.1 hPa
00:18 15.4 °C 11.6 °C 78 % 11 km/h (16 km/h) 0 mm0 mm 1026.2 hPa
00:12 15.6 °C 11.8 °C 78 % 12 km/h (16 km/h) 0 mm0 mm 1026.2 hPa
00:06 15.8 °C 11.8 °C 77 % 11 km/h (14 km/h) 0 mm0 mm 1026.1 hPa
00:00 16 °C 12 °C 77 % 11 km/h (13 km/h) 0 mm0 mm 1026.1 hPa

Données via Météo-France

Relevés météo à Dunkerque

Cette page rassemble les observations de la station de Dunkerque : température, humidité, vent, précipitations et pression atmosphérique. Les graphiques facilitent le suivi de la journée, tandis que le tableau donne accès aux mesures horaires et infra-horaires disponibles.

Pour replacer ces mesures dans leur contexte, consultez la climatologie de Dunkerque ainsi que ses normales et records. Retrouvez aussi la carte des observations météo en temps réel.